Time;durP1;ratioP1;P1;durP2;ratioP2;P2;SDS_P1;SDS_P2;PMS_P1;PMS_P2;Temp;Humidity;BMP_temperature;BMP_pressure;BME280_temperature;BME280_humidity;BME280_pressure;Samples;Min_cycle;Max_cycle;Signal;HPM_P1;HPM_P2
2021/04/02 00:00:46;;;;;;;1999.90;999.90;;;16.70;88.10;;;;;;5055042;28;20165;-40
2021/04/02 00:03:33;;;;;;;1999.90;999.90;;;16.70;87.90;;;;;;5055058;28;20161;-40
2021/04/02 00:06:07;;;;;;;1999.90;999.90;;;16.70;88.10;;;;;;5055028;28;20161;-43
2021/04/02 00:08:34;;;;;;;1999.90;999.90;;;16.60;88.10;;;;;;5054906;28;20188;-38
2021/04/02 00:11:07;;;;;;;1999.90;999.90;;;16.60;88.70;;;;;;5054814;28;20307;-43
2021/04/02 00:13:46;;;;;;;1999.90;999.90;;;16.50;89.00;;;;;;5054566;28;20493;-41
2021/04/02 00:16:16;;;;;;;1999.90;999.90;;;16.40;89.20;;;;;;5054599;28;20515;-41
2021/04/02 00:18:43;;;;;;;1999.90;999.90;;;16.30;89.70;;;;;;5054571;28;20178;-40
2021/04/02 00:21:12;;;;;;;1999.90;999.90;;;16.30;90.30;;;;;;5054521;28;20175;-44
2021/04/02 00:23:39;;;;;;;1999.90;999.90;;;16.30;90.10;;;;;;5054649;28;20640;-42
2021/04/02 00:26:15;;;;;;;1999.90;999.90;;;16.30;90.50;;;;;;5054378;28;20211;-43
2021/04/02 00:28:42;;;;;;;1999.90;999.90;;;16.20;90.60;;;;;;5054360;28;20189;-45
2021/04/02 00:31:09;;;;;;;1999.90;999.90;;;16.20;90.60;;;;;;5054378;28;20260;-43
2021/04/02 00:33:36;;;;;;;1999.90;999.90;;;16.20;90.90;;;;;;5054447;28;20169;-41
2021/04/02 00:36:04;;;;;;;1999.90;999.90;;;16.20;91.00;;;;;;5054335;28;20262;-43
2021/04/02 00:38:31;;;;;;;1999.90;999.90;;;16.20;91.00;;;;;;5054300;28;20257;-42
2021/04/02 00:41:10;;;;;;;1999.90;999.90;;;16.10;91.10;;;;;;5054294;28;20646;-41
2021/04/02 00:43:44;;;;;;;1999.90;999.90;;;16.00;91.10;;;;;;5054194;28;20157;-42
2021/04/02 00:46:12;;;;;;;1999.90;999.90;;;16.00;91.30;;;;;;5054170;28;20163;-41
2021/04/02 00:48:41;;;;;;;1999.90;999.90;;;15.90;91.50;;;;;;5053999;28;20189;-43
2021/04/02 00:51:24;;;;;;;1999.90;999.90;;;16.00;91.40;;;;;;5054118;28;20166;-43
2021/04/02 00:53:51;;;;;;;1999.90;999.90;;;16.00;91.40;;;;;;5054061;28;20153;-41
2021/04/02 00:56:18;;;;;;;1999.90;999.90;;;16.00;91.30;;;;;;5053992;28;20158;-42
2021/04/02 00:58:47;;;;;;;1999.90;999.90;;;16.00;91.20;;;;;;5053734;28;20208;-43
2021/04/02 01:01:14;;;;;;;1999.90;999.90;;;16.00;90.90;;;;;;5053856;28;20195;-41
2021/04/02 01:03:42;;;;;;;1999.90;999.90;;;16.10;90.80;;;;;;5053784;28;20219;-41
2021/04/02 01:06:22;;;;;;;1999.90;999.90;;;16.10;90.60;;;;;;5053768;28;20173;-44
2021/04/02 01:08:49;;;;;;;1999.90;999.90;;;16.10;90.60;;;;;;5053629;28;20200;-43
2021/04/02 01:11:21;;;;;;;1999.90;999.90;;;16.10;90.40;;;;;;5053682;28;20173;-41
2021/04/02 01:13:52;;;;;;;1999.90;999.90;;;16.10;90.30;;;;;;5053634;28;20185;-43
2021/04/02 01:16:24;;;;;;;1999.90;999.90;;;16.10;90.20;;;;;;5053544;28;20169;-41
2021/04/02 01:19:10;;;;;;;1999.90;999.90;;;16.20;90.00;;;;;;5053497;28;20591;-41
2021/04/02 01:21:58;;;;;;;1999.90;999.90;;;16.20;89.90;;;;;;5053523;28;20157;-41
2021/04/02 01:24:25;;;;;;;1999.90;999.90;;;16.10;90.00;;;;;;5053645;28;20161;-42
2021/04/02 01:27:16;;;;;;;1999.90;999.90;;;16.20;90.00;;;;;;5052594;28;20670;-44
2021/04/02 01:29:56;;;;;;;1999.90;999.90;;;16.20;89.60;;;;;;5053336;28;20204;-41
2021/04/02 01:32:45;;;;;;;1999.90;999.90;;;16.20;89.70;;;;;;5053313;28;20169;-43
2021/04/02 01:35:24;;;;;;;1999.90;999.90;;;16.20;89.90;;;;;;5053276;28;20189;-41
2021/04/02 01:38:10;;;;;;;1999.90;999.90;;;16.20;90.00;;;;;;5053307;28;20161;-42
2021/04/02 01:40:42;;;;;;;1999.90;999.90;;;16.20;89.90;;;;;;5053160;28;20531;-40
2021/04/02 01:43:16;;;;;;;1999.90;999.90;;;16.10;90.00;;;;;;5052984;28;20170;-39
2021/04/02 01:45:46;;;;;;;1999.90;999.90;;;16.20;90.00;;;;;;5053059;28;20153;-42
2021/04/02 01:48:15;;;;;;;1999.90;999.90;;;16.20;90.00;;;;;;5052986;28;20219;-43
2021/04/02 01:50:46;;;;;;;1999.90;999.90;;;16.10;90.00;;;;;;5052910;28;20178;-41
2021/04/02 01:53:13;;;;;;;1999.90;999.90;;;16.10;90.00;;;;;;5052922;28;20309;-43
2021/04/02 01:55:41;;;;;;;1999.90;999.90;;;16.10;90.20;;;;;;5052754;28;20166;-43
2021/04/02 01:58:09;;;;;;;1999.90;999.90;;;16.20;90.20;;;;;;5052757;28;20687;-42
2021/04/02 02:00:43;;;;;;;1999.90;999.90;;;16.30;89.70;;;;;;5052638;28;20529;-43
2021/04/02 02:03:10;;;;;;;1999.90;999.90;;;16.40;90.00;;;;;;5052835;28;20295;-43
2021/04/02 02:05:37;;;;;;;1999.90;999.90;;;16.40;90.10;;;;;;5052667;28;20172;-44
2021/04/02 02:08:05;;;;;;;1999.90;999.90;;;16.40;90.00;;;;;;5052624;28;20212;-41
2021/04/02 02:10:34;;;;;;;1999.90;999.90;;;16.30;90.00;;;;;;5052611;28;20210;-43
2021/04/02 02:13:02;;;;;;;1999.90;999.90;;;16.40;90.10;;;;;;5052611;28;20165;-43
2021/04/02 02:15:30;;;;;;;1999.90;999.90;;;16.40;90.10;;;;;;5052604;28;20180;-40
2021/04/02 02:18:00;;;;;;;1999.90;999.90;;;16.30;90.20;;;;;;5052767;28;20534;-44
2021/04/02 02:20:30;;;;;;;1999.90;999.90;;;16.20;90.40;;;;;;5052409;28;20169;-42
2021/04/02 02:22:58;;;;;;;1999.90;999.90;;;16.20;90.60;;;;;;5052466;28;20201;-42
2021/04/02 02:25:27;;;;;;;1999.90;999.90;;;16.10;90.60;;;;;;5052460;28;20173;-43
2021/04/02 02:27:54;;;;;;;1999.90;999.90;;;16.10;90.60;;;;;;5052380;28;20231;-42
2021/04/02 02:30:25;;;;;;;1999.90;999.90;;;16.00;90.60;;;;;;5052415;28;20659;-45
2021/04/02 02:32:53;;;;;;;1999.90;999.90;;;16.00;90.80;;;;;;5052694;28;20237;-42
2021/04/02 02:35:21;;;;;;;1999.90;999.90;;;16.10;90.80;;;;;;5052544;28;20173;-42
2021/04/02 02:37:50;;;;;;;1999.90;999.90;;;16.00;90.70;;;;;;5054082;28;20169;-42
2021/04/02 02:40:18;;;;;;;1999.90;999.90;;;16.00;90.80;;;;;;5056498;28;20256;-42
2021/04/02 02:42:47;;;;;;;1999.90;999.90;;;15.90;91.00;;;;;;5056510;28;20248;-43
2021/04/02 02:45:14;;;;;;;1999.90;999.90;;;16.00;91.00;;;;;;5056430;28;20177;-43
2021/04/02 02:47:42;;;;;;;1999.90;999.90;;;16.00;91.30;;;;;;5056427;28;20161;-35
2021/04/02 02:50:12;;;;;;;1999.90;999.90;;;16.10;91.10;;;;;;5056277;28;20655;-41
2021/04/02 02:52:40;;;;;;;1999.90;999.90;;;16.10;91.00;;;;;;5056354;28;20150;-40
2021/04/02 02:55:10;;;;;;;1999.90;999.90;;;16.10;90.90;;;;;;5056232;28;20200;-41
2021/04/02 02:57:38;;;;;;;1999.90;999.90;;;16.10;90.70;;;;;;5055984;28;20567;-37
2021/04/02 03:00:11;;;;;;;1999.90;999.90;;;16.20;90.70;;;;;;5056322;28;20616;-38
2021/04/02 03:02:39;;;;;;;1999.90;999.90;;;16.20;90.80;;;;;;5056109;28;20215;-38
2021/04/02 03:05:07;;;;;;;1999.90;999.90;;;16.30;90.80;;;;;;5056228;28;20165;-42
2021/04/02 03:07:36;;;;;;;1999.90;999.90;;;16.40;90.50;;;;;;5056283;28;20161;-41
2021/04/02 03:10:08;;;;;;;1999.90;999.90;;;16.40;90.40;;;;;;5055985;28;20717;-40
2021/04/02 03:12:39;;;;;;;1999.90;999.90;;;16.40;90.30;;;;;;5056456;28;20587;-41
2021/04/02 03:15:08;;;;;;;1999.90;999.90;;;16.40;90.40;;;;;;5056272;28;20283;-41
2021/04/02 03:17:39;;;;;;;1999.90;999.90;;;16.40;90.40;;;;;;5056037;28;20173;-40
2021/04/02 03:20:08;;;;;;;1999.90;999.90;;;16.40;90.50;;;;;;5055992;28;20153;-40
2021/04/02 03:22:35;;;;;;;1999.90;999.90;;;16.40;90.50;;;;;;5055907;28;20207;-42
2021/04/02 03:25:09;;;;;;;1999.90;999.90;;;16.50;90.50;;;;;;5055649;28;20531;-39
2021/04/02 03:27:40;;;;;;;1999.90;999.90;;;16.40;90.40;;;;;;5055843;28;20232;-44
2021/04/02 03:30:12;;;;;;;1999.90;999.90;;;16.30;90.40;;;;;;5055668;28;20189;-44
2021/04/02 03:32:44;;;;;;;1999.90;999.90;;;16.30;90.70;;;;;;5055710;28;20161;-42
2021/04/02 03:35:12;;;;;;;1999.90;999.90;;;16.30;90.90;;;;;;5055548;28;20180;-41
2021/04/02 03:37:42;;;;;;;1999.90;999.90;;;16.20;90.80;;;;;;5055594;28;20161;-41
2021/04/02 03:40:15;;;;;;;1999.90;999.90;;;16.30;90.90;;;;;;5055595;28;20172;-41
2021/04/02 03:42:45;;;;;;;1999.90;999.90;;;16.30;90.90;;;;;;5055438;28;20161;-42
2021/04/02 03:45:14;;;;;;;1999.90;999.90;;;16.20;90.90;;;;;;5055351;28;20168;-42
2021/04/02 03:47:42;;;;;;;1999.90;999.90;;;16.20;91.10;;;;;;5055300;28;20161;-35
2021/04/02 03:50:14;;;;;;;1999.90;999.90;;;16.10;91.20;;;;;;5054354;28;20287;-44
2021/04/02 03:53:01;;;;;;;1999.90;999.90;;;16.10;91.40;;;;;;5055646;28;20185;-41
2021/04/02 03:55:29;;;;;;;1999.90;999.90;;;16.10;91.40;;;;;;5047896;28;20192;-41
2021/04/02 03:57:57;;;;;;;1999.90;999.90;;;16.10;91.50;;;;;;5054936;28;20243;-42
2021/04/02 04:00:46;;;;;;;1999.90;999.90;;;16.10;91.70;;;;;;5055024;28;20192;-40
2021/04/02 04:03:15;;;;;;;1999.90;999.90;;;16.20;91.70;;;;;;5054984;28;20632;-41
2021/04/02 04:05:42;;;;;;;1999.90;999.90;;;16.20;91.50;;;;;;5055038;28;20176;-42
2021/04/02 04:08:13;;;;;;;1999.90;999.90;;;16.20;91.60;;;;;;5055078;28;20197;-44
2021/04/02 04:10:40;;;;;;;1999.90;999.90;;;16.20;91.80;;;;;;5055006;28;20660;-41
2021/04/02 04:13:12;;;;;;;1999.90;999.90;;;16.20;91.80;;;;;;5055159;28;20165;-44
2021/04/02 04:15:41;;;;;;;1999.90;999.90;;;16.20;91.90;;;;;;5054908;28;20192;-41
2021/04/02 04:18:09;;;;;;;1999.90;999.90;;;16.20;92.00;;;;;;5054758;28;20169;-45
2021/04/02 04:20:37;;;;;;;1999.90;999.90;;;16.20;91.80;;;;;;5054679;28;20161;-43
2021/04/02 04:23:07;;;;;;;1999.90;999.90;;;16.20;91.80;;;;;;5054597;28;20173;-36
2021/04/02 04:25:34;;;;;;;1999.90;999.90;;;16.30;91.70;;;;;;5054659;28;20505;-41
2021/04/02 04:28:03;;;;;;;1999.90;999.90;;;16.30;91.70;;;;;;5054486;28;20195;-43
2021/04/02 04:30:30;;;;;;;1999.90;999.90;;;16.30;91.80;;;;;;5054459;28;20216;-42
2021/04/02 04:32:59;;;;;;;1999.90;999.90;;;16.30;91.70;;;;;;5054437;28;20223;-42
2021/04/02 04:35:27;;;;;;;1999.90;999.90;;;16.30;91.70;;;;;;5054397;28;20176;-42
2021/04/02 04:37:55;;;;;;;1999.90;999.90;;;16.40;91.60;;;;;;5054380;28;20161;-42
2021/04/02 04:40:24;;;;;;;1999.90;999.90;;;16.30;91.70;;;;;;5053051;28;20655;-42
2021/04/02 04:42:51;;;;;;;1999.90;999.90;;;16.30;91.80;;;;;;5054265;28;20165;-42
2021/04/02 04:45:24;;;;;;;1999.90;999.90;;;16.30;91.80;;;;;;5054223;28;20169;-42
2021/04/02 04:47:51;;;;;;;1999.90;999.90;;;16.30;91.80;;;;;;5054136;28;20165;-43
2021/04/02 04:50:18;;;;;;;1999.90;999.90;;;16.30;91.70;;;;;;5053950;28;20263;-42
2021/04/02 04:53:01;;;;;;;1999.90;999.90;;;16.30;91.70;;;;;;5054176;28;20230;-43
2021/04/02 04:55:31;;;;;;;1999.90;999.90;;;16.30;91.70;;;;;;5054022;28;20157;-42
2021/04/02 04:57:59;;;;;;;1999.90;999.90;;;16.20;91.70;;;;;;5053701;28;20252;-44
2021/04/02 05:00:29;;;;;;;1999.90;999.90;;;16.20;91.80;;;;;;5053786;28;20272;-40
2021/04/02 05:02:58;;;;;;;1999.90;999.90;;;16.30;91.70;;;;;;5053862;28;20600;-44
2021/04/02 05:05:32;;;;;;;1999.90;999.90;;;16.30;91.80;;;;;;5053843;28;20176;-42
2021/04/02 05:08:03;;;;;;;1999.90;999.90;;;16.30;91.80;;;;;;5053881;28;20168;-42
2021/04/02 05:10:32;;;;;;;1999.90;999.90;;;16.30;91.90;;;;;;5053729;28;20239;-44
2021/04/02 05:13:00;;;;;;;1999.90;999.90;;;16.30;91.90;;;;;;5053700;28;20162;-43
2021/04/02 05:15:28;;;;;;;1999.90;999.90;;;16.30;91.90;;;;;;5053644;28;20172;-41
2021/04/02 05:17:56;;;;;;;1999.90;999.90;;;16.30;91.90;;;;;;5053513;28;20170;-35
2021/04/02 05:20:42;;;;;;;1999.90;999.90;;;16.40;91.70;;;;;;5053615;28;20165;-38
2021/04/02 05:23:14;;;;;;;1999.90;999.90;;;16.50;91.70;;;;;;5053417;28;20166;-39
2021/04/02 05:25:41;;;;;;;1999.90;999.90;;;16.50;91.70;;;;;;5053324;28;20509;-41
2021/04/02 05:28:09;;;;;;;1999.90;999.90;;;16.60;91.60;;;;;;5053327;28;20165;-40
2021/04/02 05:30:36;;;;;;;1999.90;999.90;;;16.60;91.60;;;;;;5053231;28;20652;-41
2021/04/02 05:33:04;;;;;;;1999.90;999.90;;;16.70;91.80;;;;;;5051918;28;20639;-41
2021/04/02 05:35:32;;;;;;;1999.90;999.90;;;16.80;92.10;;;;;;5053196;28;20579;-42
2021/04/02 05:38:03;;;;;;;1999.90;999.90;;;16.80;91.70;;;;;;5053101;28;20283;-42
2021/04/02 05:40:30;;;;;;;1999.90;999.90;;;16.80;91.60;;;;;;5053195;28;20161;-40
2021/04/02 05:43:31;;;;;;;1999.90;999.90;;;16.80;91.30;;;;;;5053182;28;20219;-39
2021/04/02 05:45:59;;;;;;;1999.90;999.90;;;16.80;92.10;;;;;;5039745;28;20543;-42
2021/04/02 05:48:29;;;;;;;1999.90;999.90;;;16.80;92.20;;;;;;5052929;28;20169;-43
2021/04/02 05:50:57;;;;;;;1999.90;999.90;;;16.70;92.20;;;;;;5052866;28;20173;-42
2021/04/02 05:53:28;;;;;;;1999.90;999.90;;;16.80;91.90;;;;;;5052821;28;20170;-41
2021/04/02 05:55:59;;;;;;;1999.90;999.90;;;16.80;92.10;;;;;;5053189;28;20176;-41
2021/04/02 05:58:27;;;;;;;1999.90;999.90;;;16.80;92.00;;;;;;5052585;28;20259;-43
2021/04/02 06:00:55;;;;;;;1999.90;999.90;;;16.80;92.00;;;;;;5053013;28;20177;-39
2021/04/02 06:03:22;;;;;;;1999.90;999.90;;;16.80;91.80;;;;;;5052982;28;20173;-41
2021/04/02 06:05:49;;;;;;;1999.90;999.90;;;16.90;91.70;;;;;;5053076;28;20180;-43
2021/04/02 06:08:20;;;;;;;1999.90;999.90;;;17.00;91.60;;;;;;5052743;28;20197;-42
2021/04/02 06:10:47;;;;;;;1999.90;999.90;;;17.00;91.30;;;;;;5052836;28;20196;-41
2021/04/02 06:13:14;;;;;;;1999.90;999.90;;;17.20;91.30;;;;;;5051996;28;20265;-40
2021/04/02 06:15:40;;;;;;;1999.90;999.90;;;17.30;91.30;;;;;;5052487;28;20179;-41
2021/04/02 06:18:10;;;;;;;1999.90;999.90;;;17.30;91.30;;;;;;5052496;28;20170;-41
2021/04/02 06:20:48;;;;;;;1999.90;999.90;;;17.30;90.90;;;;;;5052468;28;20172;-41
2021/04/02 06:23:17;;;;;;;1999.90;999.90;;;17.30;90.90;;;;;;5052406;28;20212;-39
2021/04/02 06:25:50;;;;;;;1999.90;999.90;;;17.40;90.90;;;;;;5052332;28;20185;-43
2021/04/02 06:28:30;;;;;;;1999.90;999.90;;;17.40;90.90;;;;;;5052350;28;20192;-41
2021/04/02 06:31:17;;;;;;;1999.90;999.90;;;17.40;90.90;;;;;;5052426;28;20176;-41
2021/04/02 06:33:54;;;;;;;1999.90;999.90;;;17.50;90.70;;;;;;5052422;28;20162;-41
2021/04/02 06:36:27;;;;;;;1999.90;999.90;;;17.50;90.80;;;;;;5052513;28;20636;-43
2021/04/02 06:38:59;;;;;;;1999.90;999.90;;;17.60;90.50;;;;;;5052766;28;20172;-42
2021/04/02 06:41:28;;;;;;;1999.90;999.90;;;17.70;90.40;;;;;;5050973;28;20181;-41
2021/04/02 06:43:59;;;;;;;1999.90;999.90;;;17.80;90.20;;;;;;5052430;28;20177;-40
2021/04/02 06:46:31;;;;;;;1999.90;999.90;;;17.80;89.80;;;;;;5052235;28;20173;-41
2021/04/02 06:49:11;;;;;;;1999.90;999.90;;;17.90;89.30;;;;;;5052230;28;20200;-41
2021/04/02 06:51:40;;;;;;;1999.90;999.90;;;17.90;88.30;;;;;;5052170;28;20181;-43
2021/04/02 06:54:07;;;;;;;1999.90;999.90;;;18.00;87.90;;;;;;5052312;28;20620;-41
2021/04/02 06:56:35;;;;;;;1999.90;999.90;;;18.10;88.50;;;;;;5052068;28;20504;-37
2021/04/02 06:59:03;;;;;;;1999.90;999.90;;;18.10;87.50;;;;;;5052008;28;20221;-41
2021/04/02 07:01:33;;;;;;;1999.90;999.90;;;18.20;87.00;;;;;;5052076;28;20220;-41
2021/04/02 07:04:00;;;;;;;1999.90;999.90;;;18.20;86.90;;;;;;5052034;28;20173;-41
2021/04/02 07:06:30;;;;;;;1999.90;999.90;;;18.30;87.50;;;;;;5052072;28;20244;-37
2021/04/02 07:09:00;;;;;;;1999.90;999.90;;;18.40;87.60;;;;;;5051989;28;20205;-39
2021/04/02 07:11:29;;;;;;;1999.90;999.90;;;18.50;87.00;;;;;;5052198;28;20208;-43
2021/04/02 07:13:59;;;;;;;1999.90;999.90;;;18.40;86.80;;;;;;5052097;28;20177;-42
2021/04/02 07:16:28;;;;;;;1999.90;999.90;;;18.50;86.30;;;;;;5052103;28;20177;-43
2021/04/02 07:18:57;;;;;;;1999.90;999.90;;;18.40;86.40;;;;;;5052009;28;20632;-40
2021/04/02 07:21:24;;;;;;;1999.90;999.90;;;18.50;86.30;;;;;;5052165;28;20181;-40
2021/04/02 07:23:51;;;;;;;1999.90;999.90;;;18.60;85.70;;;;;;5051927;28;20195;-41
2021/04/02 07:26:20;;;;;;;1999.90;999.90;;;18.60;83.60;;;;;;5055473;28;20177;-43
2021/04/02 07:28:47;;;;;;;1999.90;999.90;;;18.70;83.20;;;;;;5055405;28;20264;-43
2021/04/02 07:31:14;;;;;;;1999.90;999.90;;;18.60;83.90;;;;;;5055394;28;20180;-43
2021/04/02 07:33:46;;;;;;;1999.90;999.90;;;18.50;84.30;;;;;;5055648;28;20177;-42
2021/04/02 07:36:15;;;;;;;1999.90;999.90;;;18.50;84.90;;;;;;5055223;28;20628;-41
2021/04/02 07:38:48;;;;;;;1999.90;999.90;;;18.60;85.40;;;;;;5055190;28;20161;-39
2021/04/02 07:41:17;;;;;;;1999.90;999.90;;;18.60;86.30;;;;;;5055246;28;20172;-41
2021/04/02 07:43:56;;;;;;;1999.90;999.90;;;18.60;86.30;;;;;;5055305;28;20595;-39
2021/04/02 07:46:28;;;;;;;1999.90;999.90;;;18.70;88.80;;;;;;5054951;28;20340;-37
2021/04/02 07:49:10;;;;;;;1999.90;999.90;;;18.80;86.10;;;;;;5054952;28;20243;-42
2021/04/02 07:51:47;;;;;;;1999.90;999.90;;;18.80;85.00;;;;;;5055028;28;20628;-43
2021/04/02 07:54:22;;;;;;;1999.90;999.90;;;18.90;84.50;;;;;;5054946;28;20169;-38
2021/04/02 07:56:55;;;;;;;1999.90;999.90;;;19.00;84.80;;;;;;5054912;28;20236;-42
2021/04/02 07:59:42;;;;;;;1999.90;999.90;;;18.90;83.50;;;;;;5053561;28;20196;-41
2021/04/02 08:02:28;;;;;;;1999.90;999.90;;;19.00;82.90;;;;;;5054899;28;20628;-39
2021/04/02 08:04:57;;;;;;;1999.90;999.90;;;19.20;81.00;;;;;;5054770;28;20639;-40
2021/04/02 08:07:43;;;;;;;1999.90;999.90;;;19.40;81.00;;;;;;5054621;28;20230;-40
2021/04/02 08:10:19;;;;;;;1999.90;999.90;;;19.60;80.70;;;;;;5054561;28;20208;-37
2021/04/02 08:12:46;;;;;;;1999.90;999.90;;;19.70;80.60;;;;;;5054633;28;20219;-44
2021/04/02 08:15:16;;;;;;;1999.90;999.90;;;19.80;80.40;;;;;;5054514;28;20604;-41
2021/04/02 08:17:44;;;;;;;1999.90;999.90;;;20.00;78.90;;;;;;5054486;28;20230;-44
2021/04/02 08:20:17;;;;;;;1999.90;999.90;;;20.20;77.80;;;;;;5054478;28;20561;-44
2021/04/02 08:22:47;;;;;;;1999.90;999.90;;;20.70;78.70;;;;;;5054423;28;20216;-41
2021/04/02 08:25:16;;;;;;;1999.90;999.90;;;20.90;77.30;;;;;;5054504;28;20176;-45
2021/04/02 08:27:45;;;;;;;1999.90;999.90;;;21.10;75.90;;;;;;5054290;28;20173;-45
2021/04/02 08:30:14;;;;;;;1999.90;999.90;;;21.10;74.70;;;;;;5054178;28;20331;-42
2021/04/02 08:32:48;;;;;;;1999.90;999.90;;;21.00;73.40;;;;;;5054212;28;20177;-43
2021/04/02 08:35:19;;;;;;;1999.90;999.90;;;21.00;73.10;;;;;;5053908;28;20677;-42
2021/04/02 08:38:00;;;;;;;1999.90;999.90;;;20.90;72.80;;;;;;5054078;28;20165;-39
2021/04/02 08:40:27;;;;;;;1999.90;999.90;;;21.00;72.30;;;;;;5053993;28;20219;-42
2021/04/02 08:43:05;;;;;;;1999.90;999.90;;;21.30;71.90;;;;;;5053985;28;20631;-42
2021/04/02 08:45:36;;;;;;;1999.90;999.90;;;21.70;70.60;;;;;;5054198;28;20161;-42
2021/04/02 08:48:04;;;;;;;1999.90;999.90;;;21.80;69.10;;;;;;5053989;28;20700;-42
2021/04/02 08:50:32;;;;;;;1999.90;999.90;;;22.20;68.20;;;;;;5053927;28;20556;-40
2021/04/02 08:53:09;;;;;;;1999.90;999.90;;;22.40;66.90;;;;;;5053756;28;20161;-42
2021/04/02 08:55:36;;;;;;;1999.90;999.90;;;22.50;65.00;;;;;;5053690;28;20173;-33
2021/04/02 08:58:03;;;;;;;1999.90;999.90;;;23.00;64.30;;;;;;5053679;28;20300;-42
2021/04/02 09:00:31;;;;;;;1999.90;999.90;;;23.70;62.00;;;;;;5053616;28;20185;-42
2021/04/02 09:02:58;;;;;;;1999.90;999.90;;;23.80;59.60;;;;;;5053621;28;20249;-42
2021/04/02 09:05:25;;;;;;;1999.90;999.90;;;23.50;60.60;;;;;;5053722;28;20173;-41
2021/04/02 09:07:57;;;;;;;1999.90;999.90;;;23.80;59.70;;;;;;5053785;28;20192;-41
2021/04/02 09:10:25;;;;;;;1999.90;999.90;;;23.90;59.20;;;;;;5053656;28;20200;-39
2021/04/02 09:12:54;;;;;;;1999.90;999.90;;;24.30;58.00;;;;;;5053702;28;20237;-42
2021/04/02 09:15:28;;;;;;;1999.90;999.90;;;25.00;57.00;;;;;;5053618;28;20569;-42
2021/04/02 09:18:14;;;;;;;1999.90;999.90;;;25.90;53.90;;;;;;5053680;28;20160;-43
2021/04/02 09:20:41;;;;;;;1999.90;999.90;;;25.80;53.70;;;;;;5053568;28;20149;-39
2021/04/02 09:23:09;;;;;;;1999.90;999.90;;;25.80;53.30;;;;;;5053491;28;20165;-42
2021/04/02 09:25:44;;;;;;;1999.90;999.90;;;25.50;53.00;;;;;;5053640;28;20162;-43
2021/04/02 09:28:11;;;;;;;1999.90;999.90;;;25.70;52.90;;;;;;5053569;28;20616;-43
2021/04/02 09:30:38;;;;;;;1999.90;999.90;;;25.70;53.00;;;;;;5053351;28;20205;-44
2021/04/02 09:33:06;;;;;;;1999.90;999.90;;;25.20;54.10;;;;;;5053360;28;20251;-42
2021/04/02 09:35:34;;;;;;;1999.90;999.90;;;25.50;53.70;;;;;;5053324;28;20203;-42
2021/04/02 09:38:02;;;;;;;1999.90;999.90;;;25.90;52.50;;;;;;5053309;28;20253;-43
2021/04/02 09:40:29;;;;;;;1999.90;999.90;;;26.20;51.20;;;;;;5053118;28;20251;-45
2021/04/02 09:42:58;;;;;;;1999.90;999.90;;;26.50;50.20;;;;;;5053149;28;20170;-44
2021/04/02 09:45:28;;;;;;;1999.90;999.90;;;26.90;49.10;;;;;;5053355;28;20173;-43
2021/04/02 09:47:55;;;;;;;1999.90;999.90;;;27.20;47.80;;;;;;5052350;28;20165;-43
2021/04/02 09:50:22;;;;;;;1999.90;999.90;;;27.50;47.30;;;;;;5052972;28;20253;-39
2021/04/02 09:52:50;;;;;;;1999.90;999.90;;;27.40;47.60;;;;;;5053021;28;20197;-44
2021/04/02 09:55:17;;;;;;;1999.90;999.90;;;27.30;47.00;;;;;;5052917;28;20210;-42
2021/04/02 09:57:44;;;;;;;1999.90;999.90;;;27.00;47.80;;;;;;5052600;28;20217;-41
2021/04/02 10:00:13;;;;;;;1999.90;999.90;;;26.90;48.00;;;;;;5053097;28;20572;-45
2021/04/02 10:02:40;;;;;;;1999.90;999.90;;;26.10;48.20;;;;;;5052978;28;20299;-43
2021/04/02 10:05:08;;;;;;;1999.90;999.90;;;25.40;49.70;;;;;;5053021;28;20165;-44
2021/04/02 10:07:36;;;;;;;1999.90;999.90;;;25.40;50.00;;;;;;5052707;28;20177;-46
2021/04/02 10:10:04;;;;;;;1999.90;999.90;;;25.60;50.80;;;;;;5052736;28;20211;-44
2021/04/02 10:12:31;;;;;;;1999.90;999.90;;;26.00;50.40;;;;;;5051553;28;20170;-44
2021/04/02 10:14:57;;;;;;;1999.90;999.90;;;26.10;49.50;;;;;;5052603;28;20569;-43
2021/04/02 10:17:27;;;;;;;1999.90;999.90;;;26.10;50.40;;;;;;5052428;28;20646;-43
2021/04/02 10:19:55;;;;;;;1999.90;999.90;;;25.60;50.70;;;;;;5052309;28;20189;-38
2021/04/02 10:22:22;;;;;;;1999.90;999.90;;;25.30;51.60;;;;;;5052476;28;20161;-41
2021/04/02 10:24:49;;;;;;;1999.90;999.90;;;24.90;52.10;;;;;;5052419;28;20169;-42
2021/04/02 10:27:16;;;;;;;1999.90;999.90;;;24.70;54.50;;;;;;5052436;28;20177;-41
2021/04/02 10:29:43;;;;;;;1999.90;999.90;;;24.60;53.40;;;;;;5052425;28;20200;-42
2021/04/02 10:32:11;;;;;;;1999.90;999.90;;;24.40;54.20;;;;;;5052358;28;20177;-45
2021/04/02 10:34:37;;;;;;;1999.90;999.90;;;24.10;55.30;;;;;;5052424;28;20181;-43
2021/04/02 10:37:04;;;;;;;1999.90;999.90;;;23.70;57.10;;;;;;5052252;28;20250;-41
2021/04/02 10:39:33;;;;;;;1999.90;999.90;;;23.50;57.60;;;;;;5052266;28;20169;-41
2021/04/02 10:42:00;;;;;;;1999.90;999.90;;;23.40;58.80;;;;;;5052226;28;20218;-40
2021/04/02 10:44:27;;;;;;;1999.90;999.90;;;23.30;58.50;;;;;;5052175;28;20172;-40
2021/04/02 10:46:54;;;;;;;1999.90;999.90;;;23.20;57.80;;;;;;5052147;28;20180;-39
2021/04/02 10:49:21;;;;;;;1999.90;999.90;;;23.00;58.00;;;;;;5051981;28;20200;-41
2021/04/02 10:51:48;;;;;;;1999.90;999.90;;;23.10;58.10;;;;;;5052009;28;20206;-39
2021/04/02 10:54:14;;;;;;;1999.90;999.90;;;23.20;57.90;;;;;;5052214;28;20172;-41
2021/04/02 10:56:42;;;;;;;1999.90;999.90;;;23.30;57.50;;;;;;5052201;28;20173;-43
2021/04/02 10:59:08;;;;;;;1999.90;999.90;;;23.30;57.40;;;;;;5053907;28;20228;-43
2021/04/02 11:01:35;;;;;;;1999.90;999.90;;;23.30;57.30;;;;;;5055808;28;20169;-44
2021/04/02 11:04:02;;;;;;;1999.90;999.90;;;23.30;57.40;;;;;;5055811;28;20169;-43
2021/04/02 11:06:29;;;;;;;1999.90;999.90;;;23.40;57.20;;;;;;5055737;28;20612;-36
2021/04/02 11:08:56;;;;;;;1999.90;999.90;;;23.60;57.20;;;;;;5055633;28;20177;-43
2021/04/02 11:11:23;;;;;;;1999.90;999.90;;;23.80;56.60;;;;;;5055728;28;20648;-43
2021/04/02 11:13:50;;;;;;;1999.90;999.90;;;24.10;55.90;;;;;;5055686;28;20165;-42
2021/04/02 11:16:17;;;;;;;1999.90;999.90;;;24.50;55.10;;;;;;5055661;28;20631;-45
2021/04/02 11:18:46;;;;;;;1999.90;999.90;;;24.10;54.90;;;;;;5055584;28;20632;-41
2021/04/02 11:31:52;;;;;;;1999.90;999.90;;;24.40;54.20;;;;;;4947636;27;5231477;-33
2021/04/02 11:34:19;;;;;;;1999.90;999.90;;;23.50;57.10;;;;;;5110594;28;20175;-33
2021/04/02 11:36:45;;;;;;;1999.90;999.90;;;23.40;57.30;;;;;;5110517;28;20191;-40
2021/04/02 11:39:12;;;;;;;1999.90;999.90;;;23.60;56.70;;;;;;5110441;28;20655;-39
2021/04/02 11:41:39;;;;;;;1999.90;999.90;;;23.60;56.60;;;;;;5110501;28;20540;-39
2021/04/02 11:44:06;;;;;;;1999.90;999.90;;;23.30;56.90;;;;;;5110521;28;20159;-33
2021/04/02 11:46:33;;;;;;;1999.90;999.90;;;23.50;56.50;;;;;;5110607;28;20613;-35
2021/04/02 11:49:00;;;;;;;1999.90;999.90;;;23.80;57.20;;;;;;5110117;28;20254;-39
2021/04/02 11:51:28;;;;;;;1999.90;999.90;;;24.10;55.80;;;;;;5110187;28;20175;-39
2021/04/02 11:53:54;;;;;;;1999.90;999.90;;;24.20;55.60;;;;;;5110250;28;20164;-33
2021/04/02 11:56:21;;;;;;;1999.90;999.90;;;24.30;55.60;;;;;;5110184;28;20175;-34
2021/04/02 11:58:48;;;;;;;1999.90;999.90;;;24.50;54.70;;;;;;5110121;28;20160;-35
2021/04/02 12:01:15;;;;;;;1999.90;999.90;;;24.70;53.90;;;;;;5109816;28;20192;-33
2021/04/02 12:03:42;;;;;;;1999.90;999.90;;;24.90;53.30;;;;;;5110060;28;20167;-34
2021/04/02 12:06:09;;;;;;;1999.90;999.90;;;25.20;52.60;;;;;;5110062;28;20174;-32
2021/04/02 12:08:36;;;;;;;1999.90;999.90;;;24.90;52.60;;;;;;5110101;28;20160;-34
2021/04/02 12:11:03;;;;;;;1999.90;999.90;;;24.80;53.00;;;;;;5109881;28;20629;-33
2021/04/02 12:13:30;;;;;;;1999.90;999.90;;;25.10;53.00;;;;;;5109786;28;20174;-35
2021/04/02 12:15:57;;;;;;;1999.90;999.90;;;25.40;52.30;;;;;;5109669;28;20171;-33
2021/04/02 12:18:24;;;;;;;1999.90;999.90;;;25.40;52.00;;;;;;5109680;28;20199;-34
2021/04/02 12:20:51;;;;;;;1999.90;999.90;;;25.50;51.80;;;;;;5109538;28;20214;-36
2021/04/02 12:23:19;;;;;;;1999.90;999.90;;;25.60;51.00;;;;;;5109603;28;20163;-42